createdAt,value
2023-03-18T00:00:30.142Z,1.60
2023-03-18T00:06:38.168Z,1.50
2023-03-18T00:09:40.702Z,1.60
2023-03-18T00:12:45.154Z,1.60
2023-03-18T00:15:47.832Z,1.27
2023-03-18T00:18:50.685Z,2.30
2023-03-18T00:21:53.191Z,1.45
2023-03-18T00:24:55.763Z,1.23
2023-03-18T00:27:59.809Z,1.47
2023-03-18T00:31:08.606Z,1.70
2023-03-18T00:34:12.519Z,1.27
2023-03-18T00:37:18.914Z,1.83
2023-03-18T00:40:27.473Z,1.80
2023-03-18T00:43:35.805Z,1.30
2023-03-18T00:46:38.837Z,1.30
2023-03-18T00:49:41.733Z,1.25
2023-03-18T00:52:45.137Z,1.30
2023-03-18T00:55:47.864Z,1.38
2023-03-18T00:58:53.772Z,1.40
2023-03-18T01:01:56.292Z,1.20
2023-03-18T01:04:58.907Z,1.07
2023-03-18T01:08:01.774Z,1.10
2023-03-18T01:11:04.850Z,1.30
2023-03-18T01:14:08.760Z,1.35
2023-03-18T01:17:11.757Z,1.30
2023-03-18T01:20:17.052Z,1.52
2023-03-18T01:23:20.798Z,1.10
2023-03-18T01:26:23.651Z,1.17
2023-03-18T01:29:27.524Z,1.10
2023-03-18T01:32:30.155Z,1.20
2023-03-18T01:35:33.162Z,1.07
2023-03-18T01:38:35.816Z,1.85
2023-03-18T01:41:38.439Z,1.20
2023-03-18T01:44:42.571Z,1.33
2023-03-18T01:47:46.465Z,1.90
2023-03-18T01:50:53.019Z,2.43
2023-03-18T01:53:57.561Z,2.00
2023-03-18T01:57:00.520Z,1.70
2023-03-18T02:00:06.180Z,1.77
2023-03-18T02:03:09.036Z,2.17
2023-03-18T02:06:12.314Z,2.75
2023-03-18T02:09:14.898Z,2.20
2023-03-18T02:12:22.989Z,2.37
2023-03-18T02:15:28.317Z,2.20
2023-03-18T02:18:35.216Z,2.20
2023-03-18T02:21:43.230Z,3.00
2023-03-18T02:24:51.534Z,2.90
2023-03-18T02:27:57.149Z,2.70
2023-03-18T02:31:02.363Z,2.30
2023-03-18T02:34:07.128Z,2.83
2023-03-18T02:37:09.597Z,2.03
2023-03-18T02:40:17.588Z,2.30
2023-03-18T02:43:24.459Z,2.40
2023-03-18T02:46:31.182Z,2.27
2023-03-18T02:49:33.723Z,1.83
2023-03-18T02:52:36.453Z,1.70
2023-03-18T02:55:38.982Z,1.77
2023-03-18T02:58:43.022Z,1.50
2023-03-18T03:01:48.090Z,1.57
2023-03-18T03:04:51.737Z,1.37
2023-03-18T03:10:57.450Z,1.30
2023-03-18T03:14:01.380Z,1.17
2023-03-18T03:17:04.152Z,1.63
2023-03-18T03:20:08.688Z,1.42
2023-03-18T03:23:13.420Z,1.77
2023-03-18T03:26:16.117Z,1.27
2023-03-18T03:29:20.260Z,1.27
2023-03-18T03:32:23.202Z,1.50
2023-03-18T03:35:25.898Z,1.30
2023-03-18T03:38:28.446Z,1.48
2023-03-18T03:41:30.903Z,1.10
2023-03-18T03:44:35.138Z,1.00
2023-03-18T03:47:37.791Z,1.47
2023-03-18T03:50:40.590Z,1.03
2023-03-18T03:53:43.763Z,1.30
2023-03-18T03:56:46.471Z,1.00
2023-03-18T03:59:50.495Z,1.37
2023-03-18T04:02:54.137Z,0.93
2023-03-18T04:08:59.356Z,1.07
2023-03-18T04:12:02.125Z,1.10
2023-03-18T04:15:07.061Z,1.13
2023-03-18T04:18:09.946Z,1.10
2023-03-18T04:21:12.569Z,0.95
2023-03-18T04:24:15.113Z,1.30
2023-03-18T04:27:18.414Z,1.30
2023-03-18T04:30:23.378Z,0.80
2023-03-18T04:33:26.237Z,0.87
2023-03-18T04:36:29.180Z,1.30
2023-03-18T04:39:31.643Z,1.80
2023-03-18T04:42:34.391Z,1.30
2023-03-18T04:45:38.294Z,1.00
2023-03-18T04:48:40.932Z,1.10
2023-03-18T04:51:43.587Z,1.13
2023-03-18T04:54:46.067Z,1.53
2023-03-18T04:57:50.495Z,1.27
2023-03-18T05:00:54.710Z,1.30
2023-03-18T05:03:57.303Z,2.73
2023-03-18T05:06:59.901Z,2.07
2023-03-18T05:10:02.419Z,2.30
2023-03-18T05:13:05.203Z,1.80
2023-03-18T05:16:09.897Z,2.03
2023-03-18T05:19:12.702Z,2.43
2023-03-18T05:22:16.372Z,2.00
2023-03-18T05:25:19.102Z,3.37
2023-03-18T05:28:22.359Z,2.63
2023-03-18T05:31:26.366Z,2.72
2023-03-18T05:34:28.855Z,2.43
2023-03-18T05:37:31.479Z,2.30
2023-03-18T05:40:34.626Z,2.50
2023-03-18T05:43:37.737Z,2.00
2023-03-18T05:46:41.908Z,2.50
2023-03-18T05:49:44.455Z,2.53
2023-03-18T05:52:47.264Z,2.67
2023-03-18T05:55:50.000Z,2.45
2023-03-18T05:58:53.040Z,2.10
2023-03-18T06:01:57.053Z,2.95
2023-03-18T06:05:00.156Z,2.57
2023-03-18T06:08:03.109Z,2.40
2023-03-18T06:11:06.576Z,2.67
2023-03-18T06:14:09.559Z,3.10
2023-03-18T06:17:14.031Z,1.92
2023-03-18T06:20:18.614Z,2.23
2023-03-18T06:23:21.668Z,2.20
2023-03-18T06:26:24.476Z,1.65
2023-03-18T06:29:27.677Z,1.95
2023-03-18T06:32:32.987Z,1.75
2023-03-18T06:35:36.307Z,1.90
2023-03-18T06:38:39.038Z,1.75
2023-03-18T06:41:41.580Z,2.20
2023-03-18T06:44:50.383Z,1.60
2023-03-18T06:47:54.323Z,1.83
2023-03-18T06:50:56.898Z,2.40
2023-03-18T06:53:59.945Z,1.87
2023-03-18T06:57:02.729Z,1.73
2023-03-18T07:00:06.252Z,1.90
2023-03-18T07:03:10.442Z,2.20
2023-03-18T07:06:13.087Z,1.90
2023-03-18T07:09:15.607Z,2.57
2023-03-18T07:12:19.165Z,3.20
2023-03-18T07:15:22.945Z,3.88
2023-03-18T07:18:28.073Z,3.30
2023-03-18T07:21:30.854Z,2.77
2023-03-18T07:24:33.475Z,2.85
2023-03-18T07:27:35.985Z,3.10
2023-03-18T07:30:40.204Z,3.00
2023-03-18T07:33:44.155Z,3.30
2023-03-18T07:36:46.907Z,2.50
2023-03-18T07:39:49.601Z,2.65
2023-03-18T07:42:53.503Z,2.83
2023-03-18T07:45:56.176Z,2.67
2023-03-18T07:49:00.070Z,2.17
2023-03-18T07:52:03.829Z,2.30
2023-03-18T07:55:09.072Z,2.47
2023-03-18T07:58:11.610Z,2.23
2023-03-18T08:01:16.616Z,2.40
2023-03-18T08:04:20.805Z,2.23
2023-03-18T08:07:24.430Z,2.70
2023-03-18T08:13:29.481Z,2.43
2023-03-18T08:16:32.107Z,2.40
2023-03-18T08:19:36.261Z,1.80
2023-03-18T08:22:38.855Z,1.90
2023-03-18T08:25:41.819Z,2.27
2023-03-18T08:28:44.384Z,2.10
2023-03-18T08:31:47.056Z,2.47
2023-03-18T08:34:51.281Z,2.03
2023-03-18T08:37:54.322Z,2.10
2023-03-18T08:40:57.844Z,2.03
2023-03-18T08:47:02.974Z,1.70
2023-03-18T08:50:08.944Z,2.30
2023-03-18T08:53:13.098Z,2.40
2023-03-18T08:56:15.993Z,2.67
2023-03-18T08:59:18.656Z,2.30
2023-03-18T09:02:21.624Z,2.67
2023-03-18T09:05:25.964Z,2.67
2023-03-18T09:08:29.250Z,2.87
2023-03-18T09:11:31.749Z,1.90
2023-03-18T09:14:34.448Z,2.23
2023-03-18T09:17:53.420Z,2.38
2023-03-18T09:21:00.760Z,2.63
2023-03-18T09:24:07.035Z,2.10
2023-03-18T09:27:10.338Z,2.13
2023-03-18T09:30:14.097Z,1.40
2023-03-18T09:33:17.023Z,2.00
2023-03-18T09:36:20.911Z,1.65
2023-03-18T09:39:23.725Z,1.87
2023-03-18T09:42:37.557Z,1.90
2023-03-18T09:45:47.000Z,1.83
2023-03-18T09:48:58.101Z,1.40
2023-03-18T09:52:10.887Z,1.70
2023-03-18T09:55:21.762Z,1.67
2023-03-18T09:58:26.792Z,2.07
2023-03-18T10:01:29.793Z,1.50
2023-03-18T10:04:38.333Z,1.50
2023-03-18T10:07:44.638Z,1.70
2023-03-18T10:10:48.730Z,1.60
2023-03-18T10:14:19.995Z,1.60
2023-03-18T10:17:25.934Z,1.70
2023-03-18T10:20:34.333Z,1.50
2023-03-18T10:23:46.240Z,1.20
2023-03-18T10:26:50.719Z,2.10
2023-03-18T10:29:59.266Z,1.27
2023-03-18T10:33:06.611Z,1.30
2023-03-18T10:36:13.922Z,1.60
2023-03-18T10:39:20.483Z,1.60
2023-03-18T10:42:26.405Z,1.30
2023-03-18T10:45:31.743Z,1.20
2023-03-18T10:48:36.459Z,1.73
2023-03-18T10:51:45.260Z,1.73
2023-03-18T10:54:52.482Z,1.43
2023-03-18T10:57:55.062Z,0.87
2023-03-18T11:00:57.937Z,1.20
2023-03-18T11:04:03.332Z,1.10
2023-03-18T11:07:09.153Z,0.90
2023-03-18T11:10:15.700Z,0.97
2023-03-18T11:13:19.137Z,0.80
2023-03-18T11:16:26.045Z,1.77
2023-03-18T11:19:32.159Z,0.73
2023-03-18T11:22:36.660Z,0.90
2023-03-18T11:25:40.792Z,1.10
2023-03-18T11:28:43.321Z,0.77
2023-03-18T11:32:03.676Z,1.33
2023-03-18T11:35:08.572Z,1.77
2023-03-18T11:38:16.665Z,0.77
2023-03-18T11:41:25.255Z,1.07
2023-03-18T11:44:32.674Z,0.70
2023-03-18T11:47:36.471Z,0.83
2023-03-18T11:50:44.894Z,0.60
2023-03-18T11:53:54.324Z,0.70
2023-03-18T11:57:01.694Z,0.80
2023-03-18T12:00:17.554Z,1.27
2023-03-18T12:03:53.853Z,0.83
2023-03-18T12:07:06.499Z,0.90
2023-03-18T12:10:18.050Z,0.63
2023-03-18T12:13:31.744Z,0.77
2023-03-18T12:16:46.539Z,0.90
2023-03-18T12:20:12.915Z,0.60
2023-03-18T12:23:29.683Z,0.70
2023-03-18T12:26:36.252Z,0.60
2023-03-18T12:30:11.685Z,0.87
2023-03-18T12:33:26.292Z,0.83
2023-03-18T12:36:44.983Z,0.70
2023-03-18T12:39:53.777Z,0.77
2023-03-18T12:43:05.492Z,1.23
2023-03-18T12:46:20.065Z,0.97
2023-03-18T12:49:26.583Z,0.70
2023-03-18T12:52:33.690Z,0.70
2023-03-18T12:55:38.642Z,0.80
2023-03-18T12:58:46.117Z,0.77
2023-03-18T13:01:58.367Z,0.90
2023-03-18T13:05:05.600Z,0.47
2023-03-18T13:08:35.562Z,0.90
2023-03-18T13:11:55.520Z,0.83
2023-03-18T13:14:59.938Z,0.60
2023-03-18T13:18:12.069Z,0.87
2023-03-18T13:21:16.444Z,0.83
2023-03-18T13:24:44.738Z,1.17
2023-03-18T13:27:54.917Z,0.90
2023-03-18T13:31:06.563Z,1.13
2023-03-18T13:34:31.580Z,0.60
2023-03-18T13:37:52.797Z,1.30
2023-03-18T13:41:05.688Z,0.65
2023-03-18T13:44:13.207Z,0.60
2023-03-18T13:47:18.435Z,0.80
2023-03-18T13:50:32.390Z,0.70
2023-03-18T13:53:39.693Z,0.80
2023-03-18T13:56:50.029Z,0.50
2023-03-18T13:59:52.593Z,0.77
2023-03-18T14:03:17.563Z,1.38
2023-03-18T14:06:24.676Z,0.60
2023-03-18T14:09:36.021Z,0.90
2023-03-18T14:12:40.355Z,0.90
2023-03-18T14:15:45.850Z,1.00
2023-03-18T14:18:57.173Z,0.70
2023-03-18T14:22:08.599Z,0.73
2023-03-18T14:25:21.430Z,0.70
2023-03-18T14:28:26.393Z,1.17
2023-03-18T14:31:35.091Z,0.50
2023-03-18T14:34:54.579Z,0.50
2023-03-18T14:38:01.999Z,0.80
2023-03-18T14:41:07.823Z,1.00
2023-03-18T14:44:21.469Z,0.73
2023-03-18T14:47:38.074Z,0.50
2023-03-18T14:50:43.302Z,0.90
2023-03-18T14:53:50.542Z,0.63
2023-03-18T14:56:54.673Z,0.90
2023-03-18T14:59:59.446Z,0.83
2023-03-18T15:03:04.620Z,0.63
2023-03-18T15:06:08.042Z,0.90
2023-03-18T15:09:23.484Z,0.60
2023-03-18T15:12:28.227Z,0.80
2023-03-18T15:15:31.378Z,0.80
2023-03-18T15:18:36.106Z,0.83
2023-03-18T15:21:39.190Z,1.07
2023-03-18T15:27:45.729Z,0.70
2023-03-18T15:30:54.217Z,0.70
2023-03-18T15:34:05.012Z,1.30
2023-03-18T15:37:25.893Z,1.10
2023-03-18T15:40:32.864Z,1.63
2023-03-18T15:43:40.383Z,1.10
2023-03-18T15:46:47.236Z,1.20
2023-03-18T15:49:52.740Z,1.03
2023-03-18T15:53:09.444Z,1.23
2023-03-18T15:56:18.265Z,1.23
2023-03-18T15:59:28.707Z,1.10
2023-03-18T16:02:32.075Z,1.10
2023-03-18T16:05:35.023Z,1.20
2023-03-18T16:11:41.526Z,1.00
2023-03-18T16:14:45.533Z,1.07
2023-03-18T16:17:48.663Z,1.00
2023-03-18T16:20:52.841Z,1.63
2023-03-18T16:23:55.888Z,0.87
2023-03-18T16:27:00.281Z,1.10
2023-03-18T16:30:02.940Z,2.10
2023-03-18T16:33:07.451Z,1.85
2023-03-18T16:36:22.969Z,1.47
2023-03-18T16:39:28.869Z,1.33
2023-03-18T16:42:32.702Z,1.20
2023-03-18T16:45:35.793Z,1.30
2023-03-18T16:48:38.798Z,1.40
2023-03-18T16:51:42.533Z,1.80
2023-03-18T16:54:45.302Z,1.40
2023-03-18T16:57:52.301Z,1.33
2023-03-18T17:00:55.143Z,1.60
2023-03-18T17:03:57.925Z,1.60
2023-03-18T17:07:03.479Z,1.77
2023-03-18T17:10:08.961Z,1.67
2023-03-18T17:13:20.485Z,1.57
2023-03-18T17:16:23.319Z,1.30
2023-03-18T17:19:26.514Z,1.67
2023-03-18T17:22:30.636Z,1.30
2023-03-18T17:25:33.749Z,1.67
2023-03-18T17:28:39.105Z,1.60
2023-03-18T17:31:41.754Z,1.63
2023-03-18T17:34:44.719Z,2.00
2023-03-18T17:37:47.485Z,2.80
2023-03-18T17:40:50.464Z,2.13
2023-03-18T17:43:54.307Z,1.80
2023-03-18T17:46:57.519Z,1.60
2023-03-18T17:50:00.606Z,1.55
2023-03-18T17:53:03.946Z,2.10
2023-03-18T17:59:14.618Z,3.10
2023-03-18T18:02:18.698Z,1.80
2023-03-18T18:05:22.382Z,2.20
2023-03-18T18:08:26.072Z,2.33
2023-03-18T18:11:29.708Z,2.77
2023-03-18T18:14:34.223Z,3.83
2023-03-18T18:17:37.230Z,4.33
2023-03-18T18:20:39.788Z,3.10
2023-03-18T18:23:42.887Z,3.10
2023-03-18T18:26:45.621Z,3.63
2023-03-18T18:29:50.171Z,3.80
2023-03-18T18:32:53.826Z,5.63
2023-03-18T18:35:57.007Z,5.67
2023-03-18T18:39:00.635Z,5.53
2023-03-18T18:42:04.245Z,4.43
2023-03-18T18:45:10.508Z,5.03
2023-03-18T18:48:14.265Z,4.90
2023-03-18T18:51:18.751Z,4.33
2023-03-18T18:54:21.652Z,4.70
2023-03-18T18:57:26.729Z,5.28
2023-03-18T19:00:30.754Z,4.93
2023-03-18T19:03:33.626Z,4.47
2023-03-18T19:06:36.498Z,3.95
2023-03-18T19:09:39.217Z,5.30
2023-03-18T19:12:44.136Z,6.95
2023-03-18T19:15:49.513Z,4.97
2023-03-18T19:18:52.099Z,4.10
2023-03-18T19:21:54.809Z,4.97
2023-03-18T19:24:57.373Z,4.38
2023-03-18T19:28:00.298Z,4.30
2023-03-18T19:31:04.384Z,4.72
2023-03-18T19:34:10.758Z,5.37
2023-03-18T19:37:17.621Z,4.17
2023-03-18T19:40:23.733Z,4.27
2023-03-18T19:43:26.249Z,4.60
2023-03-18T19:46:35.987Z,4.50
2023-03-18T19:49:39.401Z,3.90
2023-03-18T19:52:42.228Z,4.50
2023-03-18T19:55:46.082Z,4.60
2023-03-18T20:01:54.460Z,4.15
2023-03-18T20:04:58.800Z,3.63
2023-03-18T20:08:01.407Z,3.97
2023-03-18T20:11:04.218Z,3.58
2023-03-18T20:14:22.719Z,3.72
2023-03-18T20:17:32.314Z,3.40
2023-03-18T20:20:35.417Z,3.57
2023-03-18T20:23:38.135Z,3.28
2023-03-18T20:26:40.798Z,3.20
2023-03-18T20:29:43.713Z,3.50
2023-03-18T20:32:47.583Z,4.50
2023-03-18T20:35:52.002Z,4.57
2023-03-18T20:38:54.731Z,6.07
2023-03-18T20:41:57.519Z,7.40
2023-03-18T20:45:00.407Z,6.30
2023-03-18T20:48:04.828Z,4.53
2023-03-18T20:51:15.120Z,4.70
2023-03-18T20:54:19.591Z,5.40
2023-03-18T20:57:22.460Z,5.30
2023-03-18T21:00:26.939Z,3.90
2023-03-18T21:03:31.922Z,3.47
2023-03-18T21:06:34.564Z,3.50
2023-03-18T21:09:37.120Z,2.78
2023-03-18T21:12:39.618Z,3.17
2023-03-18T21:15:42.352Z,2.67
2023-03-18T21:18:46.451Z,3.25
2023-03-18T21:21:49.043Z,3.60
2023-03-18T21:24:52.294Z,3.53
2023-03-18T21:27:55.404Z,3.00
2023-03-18T21:30:58.772Z,2.88
2023-03-18T21:34:03.958Z,2.55
2023-03-18T21:37:11.326Z,2.60
2023-03-18T21:40:19.225Z,2.13
2023-03-18T21:43:28.178Z,2.73
2023-03-18T21:46:30.840Z,2.53
2023-03-18T21:49:34.723Z,2.13
2023-03-18T21:52:38.399Z,2.87
2023-03-18T21:55:41.026Z,3.43
2023-03-18T21:58:43.567Z,4.17
2023-03-18T22:01:46.240Z,3.97
2023-03-18T22:04:50.230Z,3.17
2023-03-18T22:07:53.889Z,2.83
2023-03-18T22:13:59.291Z,2.87
2023-03-18T22:17:01.777Z,3.93
2023-03-18T22:20:07.256Z,4.10
2023-03-18T22:23:18.970Z,3.67
2023-03-18T22:26:22.388Z,2.77
2023-03-18T22:29:24.885Z,2.90
2023-03-18T22:32:45.689Z,2.70
2023-03-18T22:35:49.688Z,2.50
2023-03-18T22:38:52.361Z,2.73
2023-03-18T22:41:54.866Z,2.23
2023-03-18T22:44:57.722Z,2.40
2023-03-18T22:48:02.891Z,2.25
2023-03-18T22:51:07.478Z,2.43
2023-03-18T22:54:18.671Z,2.00
2023-03-18T22:57:22.902Z,2.13
2023-03-18T23:00:31.976Z,2.43
2023-03-18T23:03:36.368Z,2.67
2023-03-18T23:06:41.515Z,2.00
2023-03-18T23:09:56.186Z,2.77
2023-03-18T23:12:59.338Z,2.10
2023-03-18T23:16:02.297Z,2.47
2023-03-18T23:19:04.981Z,2.10
2023-03-18T23:22:10.843Z,2.20
2023-03-18T23:25:15.985Z,2.90
2023-03-18T23:28:19.237Z,2.10
2023-03-18T23:31:21.790Z,2.63
2023-03-18T23:34:24.364Z,3.00
2023-03-18T23:37:28.298Z,3.17
2023-03-18T23:40:30.951Z,2.83
2023-03-18T23:43:33.495Z,2.97
2023-03-18T23:46:36.416Z,2.20
2023-03-18T23:49:39.721Z,3.60
2023-03-18T23:52:43.680Z,3.17
2023-03-18T23:55:48.588Z,4.30
2023-03-18T23:58:51.586Z,2.87
